Ulrum, Netherlands
Current Conditions -  °F | °C
As of 12:25 PM on Friday 24 Oct 2014 (Local Time) from EHMA Reporting Station
Light Rain Light Rain  
Wind Chill: 52°   Ceiling: 2700
Heat Index: 52°   Visibility: 4mi
Dew Point: 50°   Wind: 30mph
Humidity: 94%   Direction: 200°SSW
Pressure: 30"   Gusts: NA
Location:  53.36°N, 6.33°E
Report Text: EHMA 241025Z AUTO 20026KT 7000 -RADZ FEW010/// BKN027///BKN043/// 11/10 Q1016
Loading
Personal Weather Stations






























Interactive Weather Map
Tropical Storm Tracking
New forecast layout! Learn more

10-Day Weather Forecast

Advertisements
Track Severe Weather on mobile